createdAt,value
2023-02-04T00:00:18.209Z,102469.78
2023-02-04T00:02:44.810Z,102478.34
2023-02-04T00:05:12.447Z,102480.31
2023-02-04T00:07:41.301Z,102487.69
2023-02-04T00:10:09.134Z,102485.53
2023-02-04T00:12:35.893Z,102487.09
2023-02-04T00:15:02.954Z,102485.94
2023-02-04T00:17:29.493Z,102492.75
2023-02-04T00:19:55.938Z,102510.06
2023-02-04T00:22:22.463Z,102477.06
2023-02-04T00:24:50.438Z,102510.53
2023-02-04T00:27:17.076Z,102516.22
2023-02-04T00:29:43.681Z,102515.22
2023-02-04T00:32:10.284Z,102514.47
2023-02-04T00:34:36.786Z,102506.38
2023-02-04T00:37:03.245Z,102509.34
2023-02-04T00:39:29.816Z,102520.88
2023-02-04T00:41:56.318Z,102526.00
2023-02-04T00:44:22.854Z,102524.63
2023-02-04T00:46:49.366Z,102520.81
2023-02-04T00:49:15.908Z,102526.34
2023-02-04T00:51:46.322Z,102504.69
2023-02-04T00:54:13.739Z,102524.03
2023-02-04T00:56:40.203Z,102527.00
2023-02-04T00:59:06.789Z,102532.97
2023-02-04T01:01:33.324Z,102532.38
2023-02-04T01:03:59.771Z,102533.97
2023-02-04T01:06:26.297Z,102537.19
2023-02-04T01:08:52.919Z,102539.44
2023-02-04T01:11:19.783Z,102538.91
2023-02-04T01:13:46.809Z,102536.34
2023-02-04T01:16:13.618Z,102542.97
2023-02-04T01:18:40.257Z,102543.38
2023-02-04T01:21:06.755Z,102552.91
2023-02-04T01:23:33.247Z,102557.19
2023-02-04T01:25:59.720Z,102553.91
2023-02-04T01:28:26.200Z,102564.81
2023-02-04T01:30:52.693Z,102568.34
2023-02-04T01:33:19.214Z,102549.97
2023-02-04T01:35:45.775Z,102557.56
2023-02-04T01:38:12.281Z,102557.94
2023-02-04T01:40:38.939Z,102560.50
2023-02-04T01:43:06.007Z,102567.41
2023-02-04T01:45:35.448Z,102573.81
2023-02-04T01:48:02.932Z,102578.19
2023-02-04T01:50:30.075Z,102572.34
2023-02-04T01:52:56.811Z,102583.84
2023-02-04T01:55:27.833Z,102583.00
2023-02-04T01:57:55.761Z,102583.72
2023-02-04T02:00:31.996Z,102582.41
2023-02-04T02:02:59.817Z,102589.25
2023-02-04T02:05:35.799Z,102595.38
2023-02-04T02:08:04.661Z,102599.78
2023-02-04T02:10:32.207Z,102601.22
2023-02-04T02:12:59.021Z,102599.53
2023-02-04T02:15:25.815Z,102610.44
2023-02-04T02:17:54.303Z,102599.78
2023-02-04T02:20:23.065Z,102606.41
2023-02-04T02:23:15.470Z,102603.84
2023-02-04T02:25:42.641Z,102602.84
2023-02-04T02:28:14.857Z,102608.50
2023-02-04T02:30:45.353Z,102616.22
2023-02-04T02:33:17.244Z,102615.25
2023-02-04T02:35:48.235Z,102620.03
2023-02-04T02:38:17.138Z,102613.28
2023-02-04T02:40:44.509Z,102621.50
2023-02-04T02:43:17.231Z,102623.34
2023-02-04T02:45:45.077Z,102627.53
2023-02-04T02:48:11.876Z,102628.72
2023-02-04T02:50:39.028Z,102625.78
2023-02-04T02:53:13.770Z,102609.28
2023-02-04T02:55:41.269Z,102620.66
2023-02-04T02:58:16.434Z,102610.38
2023-02-04T03:00:43.931Z,102620.44
2023-02-04T03:03:17.608Z,102625.94
2023-02-04T03:05:48.230Z,102625.69
2023-02-04T03:08:16.323Z,102635.38
2023-02-04T03:10:43.784Z,102625.06
2023-02-04T03:13:12.032Z,102647.84
2023-02-04T03:15:39.030Z,102656.22
2023-02-04T03:18:05.692Z,102650.31
2023-02-04T03:20:33.654Z,102641.38
2023-02-04T03:23:00.125Z,102647.84
2023-02-04T03:25:28.204Z,102646.41
2023-02-04T03:27:58.952Z,102636.38
2023-02-04T03:30:26.239Z,102651.44
2023-02-04T03:32:53.448Z,102654.72
2023-02-04T03:35:19.943Z,102657.44
2023-02-04T03:37:46.428Z,102661.13
2023-02-04T03:40:13.254Z,102663.69
2023-02-04T03:42:39.845Z,102673.00
2023-02-04T03:45:06.516Z,102668.22
2023-02-04T03:47:33.063Z,102659.41
2023-02-04T03:49:59.495Z,102675.59
2023-02-04T03:52:25.942Z,102669.44
2023-02-04T03:54:52.425Z,102667.13
2023-02-04T03:57:19.109Z,102662.81
2023-02-04T03:59:45.632Z,102669.09
2023-02-04T04:02:12.124Z,102675.59
2023-02-04T04:04:38.666Z,102675.34
2023-02-04T04:07:05.617Z,102677.78
2023-02-04T04:09:32.063Z,102680.00
2023-02-04T04:11:58.576Z,102669.97
2023-02-04T04:14:25.075Z,102680.13
2023-02-04T04:16:51.589Z,102684.53
2023-02-04T04:19:18.016Z,102693.59
2023-02-04T04:21:44.451Z,102686.59
2023-02-04T04:24:11.081Z,102689.81
2023-02-04T04:26:37.570Z,102687.34
2023-02-04T04:29:04.075Z,102684.66
2023-02-04T04:31:30.750Z,102685.91
2023-02-04T04:33:57.339Z,102682.56
2023-02-04T04:36:23.964Z,102689.91
2023-02-04T04:38:50.513Z,102679.88
2023-02-04T04:41:17.006Z,102703.03
2023-02-04T04:43:43.513Z,102703.13
2023-02-04T04:46:10.037Z,102701.31
2023-02-04T04:48:36.494Z,102704.00
2023-02-04T04:51:03.407Z,102713.91
2023-02-04T04:53:29.927Z,102709.75
2023-02-04T04:55:56.540Z,102714.03
2023-02-04T04:58:23.115Z,102719.53
2023-02-04T05:00:49.685Z,102720.16
2023-02-04T05:03:16.255Z,102726.28
2023-02-04T05:05:42.852Z,102729.84
2023-02-04T05:08:12.969Z,102731.53
2023-02-04T05:10:40.678Z,102731.66
2023-02-04T05:13:07.574Z,102720.88
2023-02-04T05:15:34.649Z,102730.72
2023-02-04T05:18:01.449Z,102725.56
2023-02-04T05:20:27.899Z,102732.41
2023-02-04T05:22:56.015Z,102725.91
2023-02-04T05:25:23.449Z,102732.41
2023-02-04T05:27:49.917Z,102724.44
2023-02-04T05:30:16.592Z,102738.78
2023-02-04T05:32:43.085Z,102747.34
2023-02-04T05:35:09.818Z,102741.44
2023-02-04T05:37:36.263Z,102759.84
2023-02-04T05:40:03.573Z,102756.16
2023-02-04T05:42:30.042Z,102754.19
2023-02-04T05:44:56.562Z,102759.34
2023-02-04T05:47:23.025Z,102756.38
2023-02-04T05:49:49.757Z,102762.28
2023-02-04T05:52:16.212Z,102765.69
2023-02-04T05:54:42.718Z,102771.19
2023-02-04T05:57:09.276Z,102757.59
2023-02-04T05:59:35.844Z,102759.41
2023-02-04T06:02:02.337Z,102777.78
2023-02-04T06:04:28.996Z,102784.06
2023-02-04T06:06:55.528Z,102756.06
2023-02-04T06:09:22.039Z,102784.06
2023-02-04T06:11:48.557Z,102778.91
2023-02-04T06:14:15.001Z,102782.31
2023-02-04T06:16:41.515Z,102793.09
2023-02-04T06:19:08.055Z,102793.97
2023-02-04T06:21:34.502Z,102795.78
2023-02-04T06:24:01.017Z,102804.00
2023-02-04T06:26:27.573Z,102802.31
2023-02-04T06:28:53.999Z,102806.13
2023-02-04T06:31:20.573Z,102808.84
2023-02-04T06:33:50.029Z,102815.69
2023-02-04T06:36:16.336Z,102810.44
2023-02-04T06:38:42.834Z,102813.59
2023-02-04T06:41:09.348Z,102817.91
2023-02-04T06:43:35.798Z,102825.25
2023-02-04T06:46:02.301Z,102820.34
2023-02-04T06:48:30.960Z,102818.41
2023-02-04T06:50:57.673Z,102818.63
2023-02-04T06:53:24.219Z,102812.47
2023-02-04T06:55:52.046Z,102815.19
2023-02-04T06:58:18.759Z,102813.72
2023-02-04T07:00:45.223Z,102815.41
2023-02-04T07:03:11.694Z,102815.41
2023-02-04T07:05:38.132Z,102819.97
2023-02-04T07:08:04.901Z,102822.53
2023-02-04T07:10:33.064Z,102830.50
2023-02-04T07:12:59.797Z,102835.03
2023-02-04T07:15:26.306Z,102830.09
2023-02-04T07:17:53.924Z,102829.38
2023-02-04T07:20:20.412Z,102838.41
2023-02-04T07:22:46.882Z,102833.25
2023-02-04T07:25:15.971Z,102836.47
2023-02-04T07:27:42.511Z,102841.41
2023-02-04T07:30:10.491Z,102842.13
2023-02-04T07:32:36.978Z,102848.97
2023-02-04T07:35:03.534Z,102851.06
2023-02-04T07:37:29.998Z,102853.75
2023-02-04T07:39:56.562Z,102854.38
2023-02-04T07:42:23.139Z,102864.91
2023-02-04T07:44:49.720Z,102861.50
2023-02-04T07:47:16.232Z,102870.31
2023-02-04T07:49:42.696Z,102869.94
2023-02-04T07:52:09.678Z,102876.56
2023-02-04T07:54:36.244Z,102876.69
2023-02-04T07:57:02.790Z,102882.59
2023-02-04T07:59:29.279Z,102882.50
2023-02-04T08:01:55.845Z,102891.81
2023-02-04T08:04:22.405Z,102886.41
2023-02-04T08:06:48.915Z,102885.78
2023-02-04T08:09:15.437Z,102892.66
2023-02-04T08:11:41.979Z,102887.47
2023-02-04T08:14:08.635Z,102890.19
2023-02-04T08:16:35.189Z,102892.88
2023-02-04T08:19:01.678Z,102896.56
2023-02-04T08:21:28.098Z,102897.53
2023-02-04T08:23:54.608Z,102878.91
2023-02-04T08:26:21.604Z,102900.25
2023-02-04T08:28:48.054Z,102894.88
2023-02-04T08:31:14.689Z,102899.03
2023-02-04T08:33:41.318Z,102907.13
2023-02-04T08:36:08.164Z,102912.91
2023-02-04T08:38:34.848Z,102913.63
2023-02-04T08:41:01.615Z,102918.69
2023-02-04T08:43:28.141Z,102923.13
2023-02-04T08:45:54.688Z,102913.09
2023-02-04T08:48:21.229Z,102923.66
2023-02-04T08:50:47.770Z,102921.56
2023-02-04T08:53:14.245Z,102918.38
2023-02-04T08:55:40.712Z,102925.41
2023-02-04T08:58:07.310Z,102925.16
2023-02-04T09:00:34.375Z,102924.16
2023-02-04T09:03:01.060Z,102937.41
2023-02-04T09:05:27.549Z,102930.56
2023-02-04T09:07:54.050Z,102935.94
2023-02-04T09:10:20.625Z,102942.31
2023-02-04T09:12:47.217Z,102947.34
2023-02-04T09:15:13.907Z,102943.53
2023-02-04T09:17:42.179Z,102949.19
2023-02-04T09:20:10.527Z,102955.72
2023-02-04T09:22:37.758Z,102958.28
2023-02-04T09:25:04.543Z,102963.44
2023-02-04T09:27:31.118Z,102959.00
2023-02-04T09:29:57.589Z,102960.00
2023-02-04T09:32:24.152Z,102954.09
2023-02-04T09:34:50.632Z,102951.16
2023-02-04T09:37:17.877Z,102957.91
2023-02-04T09:39:44.415Z,102963.53
2023-02-04T09:42:15.841Z,102961.22
2023-02-04T09:44:42.721Z,102972.28
2023-02-04T09:47:12.616Z,102975.34
2023-02-04T09:49:39.182Z,102983.44
2023-02-04T09:52:12.144Z,102972.03
2023-02-04T09:54:38.595Z,102981.94
2023-02-04T09:57:16.705Z,102986.00
2023-02-04T09:59:44.540Z,102981.22
2023-02-04T10:02:23.205Z,102985.28
2023-02-04T10:04:52.235Z,102992.38
2023-02-04T10:07:24.151Z,102994.25
2023-02-04T10:09:53.173Z,102996.09
2023-02-04T10:12:22.446Z,102989.97
2023-02-04T10:14:49.648Z,103002.22
2023-02-04T10:17:21.218Z,102988.25
2023-02-04T10:19:48.314Z,102990.81
2023-02-04T10:22:18.201Z,102992.03
2023-02-04T10:24:44.937Z,103002.78
2023-02-04T10:27:16.019Z,102995.78
2023-02-04T10:29:42.961Z,102999.72
2023-02-04T10:32:26.558Z,102996.31
2023-02-04T10:34:59.444Z,103002.31
2023-02-04T10:37:26.209Z,102995.06
2023-02-04T10:39:52.883Z,102996.72
2023-02-04T10:42:28.189Z,102998.84
2023-02-04T10:44:55.077Z,102999.72
2023-02-04T10:47:28.075Z,102993.34
2023-02-04T10:49:57.641Z,102994.56
2023-02-04T10:52:26.679Z,102998.75
2023-02-04T10:54:53.256Z,102995.53
2023-02-04T10:57:30.365Z,102993.06
2023-02-04T10:59:59.241Z,102995.03
2023-02-04T11:02:55.624Z,102995.91
2023-02-04T11:05:25.239Z,102994.31
2023-02-04T11:07:51.704Z,103000.19
2023-02-04T11:10:38.546Z,103003.09
2023-02-04T11:13:06.858Z,102992.78
2023-02-04T11:15:39.296Z,103001.88
2023-02-04T11:18:11.805Z,102997.69
2023-02-04T11:20:40.569Z,103001.25
2023-02-04T11:23:30.001Z,102986.28
2023-02-04T11:26:02.541Z,102989.31
2023-02-04T11:28:29.067Z,102994.59
2023-02-04T11:31:03.713Z,102993.72
2023-02-04T11:33:41.494Z,103005.84
2023-02-04T11:36:11.933Z,103001.56
2023-02-04T11:38:39.447Z,102998.13
2023-02-04T11:41:06.176Z,102995.16
2023-02-04T11:43:36.140Z,102993.19
2023-02-04T11:46:14.902Z,102993.19
2023-02-04T11:48:41.651Z,102990.31
2023-02-04T11:51:20.794Z,102980.09
2023-02-04T11:53:51.607Z,102988.41
2023-02-04T11:56:20.216Z,102992.56
2023-02-04T11:58:48.573Z,102959.25
2023-02-04T12:01:25.075Z,102995.53
2023-02-04T12:04:00.322Z,102992.38
2023-02-04T12:06:30.512Z,102996.16
2023-02-04T12:09:06.995Z,102997.72
2023-02-04T12:11:33.973Z,102996.84
2023-02-04T12:14:09.757Z,102999.97
2023-02-04T12:16:46.566Z,103002.97
2023-02-04T12:19:14.348Z,103006.09
2023-02-04T12:21:41.187Z,103003.31
2023-02-04T12:24:07.708Z,103003.06
2023-02-04T12:26:34.267Z,103011.75
2023-02-04T12:29:03.245Z,103004.16
2023-02-04T12:31:30.080Z,103001.47
2023-02-04T12:33:56.731Z,102997.28
2023-02-04T12:36:23.317Z,102991.31
2023-02-04T12:38:49.819Z,102993.38
2023-02-04T12:41:16.282Z,102994.56
2023-02-04T12:43:42.747Z,102998.69
2023-02-04T12:46:09.198Z,103002.88
2023-02-04T12:48:35.840Z,102991.44
2023-02-04T12:51:02.718Z,102998.28
2023-02-04T12:53:29.360Z,103002.97
2023-02-04T12:55:57.815Z,102996.63
2023-02-04T12:58:24.342Z,102997.41
2023-02-04T13:00:50.997Z,103000.44
2023-02-04T13:03:17.551Z,103001.25
2023-02-04T13:05:44.069Z,103001.63
2023-02-04T13:08:10.761Z,102999.31
2023-02-04T13:10:37.238Z,103002.94
2023-02-04T13:13:04.766Z,102991.44
2023-02-04T13:15:31.696Z,102994.91
2023-02-04T13:17:58.503Z,102999.84
2023-02-04T13:20:24.947Z,102998.53
2023-02-04T13:22:51.422Z,102992.72
2023-02-04T13:25:17.940Z,102995.41
2023-02-04T13:27:44.515Z,102991.44
2023-02-04T13:30:13.496Z,102985.78
2023-02-04T13:32:40.909Z,102992.72
2023-02-04T13:35:07.700Z,102991.72
2023-02-04T13:37:34.407Z,102999.84
2023-02-04T13:40:00.885Z,102984.19
2023-02-04T13:42:27.388Z,102992.63
2023-02-04T13:44:55.191Z,102987.47
2023-02-04T13:47:21.824Z,102982.16
2023-02-04T13:49:48.547Z,102985.63
2023-02-04T13:52:18.179Z,102980.75
2023-02-04T13:54:45.812Z,102940.09
2023-02-04T13:57:12.442Z,102988.16
2023-02-04T13:59:38.891Z,102985.22
2023-02-04T14:02:05.386Z,102981.03
2023-02-04T14:04:32.288Z,102979.38
2023-02-04T14:06:58.790Z,102974.41
2023-02-04T14:09:25.382Z,102986.72
2023-02-04T14:11:51.960Z,102990.19
2023-02-04T14:14:18.498Z,102984.28
2023-02-04T14:16:45.122Z,102998.75
2023-02-04T14:19:11.718Z,102992.13
2023-02-04T14:21:38.296Z,102981.75
2023-02-04T14:24:04.861Z,102985.06
2023-02-04T14:26:31.337Z,102986.00
2023-02-04T14:28:57.797Z,102988.09
2023-02-04T14:31:24.420Z,102979.19
2023-02-04T14:33:51.025Z,102987.69
2023-02-04T14:36:17.648Z,102982.06
2023-02-04T14:38:44.137Z,102985.50
2023-02-04T14:41:12.935Z,102988.44
2023-02-04T14:43:39.416Z,102981.81
2023-02-04T14:46:06.003Z,102989.34
2023-02-04T14:48:32.613Z,102995.31
2023-02-04T14:50:59.069Z,102995.31
2023-02-04T14:53:25.546Z,102994.72
2023-02-04T14:55:52.050Z,103001.84
2023-02-04T14:58:18.493Z,103001.50
2023-02-04T15:00:44.973Z,103005.84
2023-02-04T15:03:11.416Z,102983.94
2023-02-04T15:05:37.902Z,103003.19
2023-02-04T15:08:04.696Z,103007.28
2023-02-04T15:10:31.508Z,103008.66
2023-02-04T15:12:59.217Z,102982.31
2023-02-04T15:15:25.690Z,103011.63
2023-02-04T15:17:52.194Z,103010.31
2023-02-04T15:20:19.010Z,103017.69
2023-02-04T15:22:45.647Z,103020.56
2023-02-04T15:25:13.034Z,103017.44
2023-02-04T15:27:39.541Z,103014.72
2023-02-04T15:30:06.296Z,103012.16
2023-02-04T15:32:32.874Z,103014.97
2023-02-04T15:34:59.348Z,103014.84
2023-02-04T15:37:25.847Z,103018.69
2023-02-04T15:39:52.757Z,103013.34
2023-02-04T15:42:19.455Z,103005.00
2023-02-04T15:44:45.944Z,103016.75
2023-02-04T15:47:12.405Z,103021.44
2023-02-04T15:49:38.855Z,103027.25
2023-02-04T15:52:08.873Z,103022.59
2023-02-04T15:54:37.967Z,103024.06
2023-02-04T15:57:04.493Z,103029.31
2023-02-04T15:59:31.277Z,103028.88
2023-02-04T16:01:57.761Z,103033.28
2023-02-04T16:04:24.275Z,103032.56
2023-02-04T16:06:58.425Z,103027.41
2023-02-04T16:09:26.196Z,103038.47
2023-02-04T16:11:52.696Z,103018.47
2023-02-04T16:14:19.201Z,103029.66
2023-02-04T16:16:45.725Z,103034.56
2023-02-04T16:19:12.171Z,103038.03
2023-02-04T16:21:38.709Z,103036.31
2023-02-04T16:24:05.587Z,103029.16
2023-02-04T16:26:32.278Z,103036.56
2023-02-04T16:28:59.144Z,103037.56
2023-02-04T16:31:25.881Z,103046.75
2023-02-04T16:33:52.446Z,103048.88
2023-02-04T16:36:19.002Z,103046.41
2023-02-04T16:38:45.496Z,103041.38
2023-02-04T16:41:14.161Z,103055.75
2023-02-04T16:43:40.611Z,103040.88
2023-02-04T16:46:07.270Z,103048.25
2023-02-04T16:48:36.351Z,103051.22
2023-02-04T16:51:02.954Z,103051.56
2023-02-04T16:53:29.428Z,103053.28
2023-02-04T16:55:55.950Z,103054.53
2023-02-04T16:58:22.711Z,103057.00
2023-02-04T17:00:50.167Z,103061.66
2023-02-04T17:03:16.723Z,103057.34
2023-02-04T17:05:43.609Z,103076.03
2023-02-04T17:08:11.585Z,103072.69
2023-02-04T17:11:05.606Z,103075.50
2023-02-04T17:13:32.214Z,103075.41
2023-02-04T17:16:01.093Z,103077.84
2023-02-04T17:18:32.133Z,103080.78
2023-02-04T17:20:59.386Z,103081.53
2023-02-04T17:23:26.806Z,103068.53
2023-02-04T17:25:53.348Z,103081.53
2023-02-04T17:28:19.871Z,103086.94
2023-02-04T17:30:46.591Z,103090.25
2023-02-04T17:33:13.094Z,103080.41
2023-02-04T17:35:39.586Z,103084.19
2023-02-04T17:38:06.135Z,103089.69
2023-02-04T17:40:32.671Z,103091.69
2023-02-04T17:42:59.471Z,103090.19
2023-02-04T17:45:26.114Z,103088.81
2023-02-04T17:47:52.671Z,103081.94
2023-02-04T17:50:19.430Z,103085.16
2023-02-04T17:52:46.293Z,103079.41
2023-02-04T17:55:22.220Z,103081.47
2023-02-04T17:57:49.258Z,103071.66
2023-02-04T18:00:21.023Z,103079.41
2023-02-04T18:02:50.120Z,103088.63
2023-02-04T18:05:21.354Z,103086.63
2023-02-04T18:08:01.841Z,103088.38
2023-02-04T18:10:31.987Z,103080.00
2023-02-04T18:13:01.124Z,103081.00
2023-02-04T18:15:32.559Z,103073.00
2023-02-04T18:18:21.169Z,103084.63
2023-02-04T18:20:50.746Z,103081.69
2023-02-04T18:23:19.176Z,103081.94
2023-02-04T18:26:13.137Z,103090.13
2023-02-04T18:28:44.799Z,103085.44
2023-02-04T18:31:36.207Z,103098.84
2023-02-04T18:34:24.227Z,103086.50
2023-02-04T18:36:50.954Z,103086.50
2023-02-04T18:39:27.929Z,103094.59
2023-02-04T18:41:55.057Z,103096.53
2023-02-04T18:44:31.799Z,103095.56
2023-02-04T18:46:58.398Z,103100.59
2023-02-04T18:49:32.471Z,103096.41
2023-02-04T18:52:06.459Z,103087.81
2023-02-04T18:54:38.650Z,103086.50
2023-02-04T18:57:16.002Z,103085.13
2023-02-04T18:59:43.851Z,103092.72
2023-02-04T19:02:33.412Z,103091.13
2023-02-04T19:05:13.305Z,103079.34
2023-02-04T19:07:40.554Z,103080.69
2023-02-04T19:10:31.627Z,103085.63
2023-02-04T19:13:18.680Z,103090.13
2023-02-04T19:15:55.138Z,103047.53
2023-02-04T19:18:27.524Z,103085.97
2023-02-04T19:21:23.296Z,103080.13
2023-02-04T19:24:14.927Z,103081.81
2023-02-04T19:26:53.879Z,103076.66
2023-02-04T19:29:24.731Z,103079.94
2023-02-04T19:32:27.512Z,103100.47
2023-02-04T19:34:57.466Z,103080.81
2023-02-04T19:37:48.410Z,103083.03
2023-02-04T19:40:37.202Z,103099.59
2023-02-04T19:43:31.961Z,103092.13
2023-02-04T19:45:59.561Z,103092.25
2023-02-04T19:48:35.181Z,103093.44
2023-02-04T19:51:17.675Z,103096.13
2023-02-04T19:53:46.965Z,103086.63
2023-02-04T19:56:31.589Z,103076.28
2023-02-04T19:59:10.514Z,103093.84
2023-02-04T20:01:36.997Z,103090.28
2023-02-04T20:04:12.658Z,103088.03
2023-02-04T20:06:43.790Z,103098.84
2023-02-04T20:09:31.002Z,103092.50
2023-02-04T20:12:06.226Z,103086.84
2023-02-04T20:14:44.507Z,103081.22
2023-02-04T20:17:19.170Z,103085.97
2023-02-04T20:19:46.492Z,103083.63
2023-02-04T20:22:19.136Z,103085.72
2023-02-04T20:24:56.561Z,103097.00
2023-02-04T20:27:36.310Z,103099.59
2023-02-04T20:30:12.235Z,103103.88
2023-02-04T20:32:40.077Z,103105.00
2023-02-04T20:35:06.641Z,103100.94
2023-02-04T20:37:34.278Z,103095.00
2023-02-04T20:40:13.584Z,103087.78
2023-02-04T20:42:45.981Z,103094.06
2023-02-04T20:45:28.367Z,103096.13
2023-02-04T20:48:15.389Z,103093.53
2023-02-04T20:50:56.041Z,103093.16
2023-02-04T20:53:27.167Z,103093.16
2023-02-04T20:56:06.828Z,103084.06
2023-02-04T20:58:37.611Z,103090.47
2023-02-04T21:01:19.731Z,103086.81
2023-02-04T21:03:46.414Z,103079.81
2023-02-04T21:06:20.040Z,103086.69
2023-02-04T21:08:49.290Z,103085.31
2023-02-04T21:11:15.848Z,103086.69
2023-02-04T21:13:42.535Z,103079.94
2023-02-04T21:16:12.023Z,103078.88
2023-02-04T21:18:38.959Z,103081.34
2023-02-04T21:21:07.875Z,103086.63
2023-02-04T21:23:36.273Z,103082.94
2023-02-04T21:26:03.332Z,103085.50
2023-02-04T21:28:30.495Z,103090.91
2023-02-04T21:30:57.114Z,103100.59
2023-02-04T21:33:23.662Z,103107.72
2023-02-04T21:35:50.350Z,103098.50
2023-02-04T21:38:16.899Z,103105.97
2023-02-04T21:40:43.817Z,103106.44
2023-02-04T21:43:10.605Z,103114.09
2023-02-04T21:45:39.524Z,103106.94
2023-02-04T21:48:07.864Z,103104.00
2023-02-04T21:50:38.170Z,103087.78
2023-02-04T21:53:05.642Z,103084.50
2023-02-04T21:55:32.501Z,103088.03
2023-02-04T21:58:00.709Z,103094.59
2023-02-04T22:00:27.568Z,103090.75
2023-02-04T22:02:54.489Z,103088.56
2023-02-04T22:05:22.424Z,103100.59
2023-02-04T22:07:49.325Z,103104.75
2023-02-04T22:10:20.457Z,103108.56
2023-02-04T22:12:47.177Z,103097.25
2023-02-04T22:15:14.630Z,103102.66
2023-02-04T22:17:41.320Z,103099.94
2023-02-04T22:20:09.130Z,103101.69
2023-02-04T22:22:35.895Z,103095.88
2023-02-04T22:25:02.832Z,103090.47
2023-02-04T22:27:29.302Z,103083.31
2023-02-04T22:29:56.922Z,103081.38
2023-02-04T22:32:24.127Z,103088.25
2023-02-04T22:34:50.634Z,103083.63
2023-02-04T22:37:17.159Z,103081.63
2023-02-04T22:39:43.746Z,103075.16
2023-02-04T22:42:10.279Z,103073.31
2023-02-04T22:44:36.847Z,103091.25
2023-02-04T22:47:03.651Z,103083.50
2023-02-04T22:49:32.469Z,103075.41
2023-02-04T22:51:59.582Z,103071.34
2023-02-04T22:54:26.179Z,103073.41
2023-02-04T22:56:52.695Z,103070.34
2023-02-04T22:59:19.138Z,103066.53
2023-02-04T23:01:45.689Z,103073.25
2023-02-04T23:04:12.255Z,103064.53
2023-02-04T23:06:38.785Z,103075.19
2023-02-04T23:09:05.460Z,103068.69
2023-02-04T23:11:31.968Z,103075.19
2023-02-04T23:13:58.460Z,103076.91
2023-02-04T23:16:25.062Z,103067.47
2023-02-04T23:18:51.613Z,103074.34
2023-02-04T23:21:20.170Z,103080.47
2023-02-04T23:23:47.672Z,103086.94
2023-02-04T23:26:15.030Z,103085.97
2023-02-04T23:28:41.571Z,103093.72
2023-02-04T23:31:08.147Z,103098.00
2023-02-04T23:33:34.741Z,103101.91
2023-02-04T23:36:01.390Z,103091.00
2023-02-04T23:38:27.870Z,103096.16
2023-02-04T23:40:54.389Z,103096.16
2023-02-04T23:43:20.892Z,103097.84
2023-02-04T23:45:47.362Z,103093.19
2023-02-04T23:48:14.322Z,103098.47
2023-02-04T23:50:40.843Z,103092.94
2023-02-04T23:53:07.336Z,103086.34
2023-02-04T23:55:34.511Z,103089.91
2023-02-04T23:58:01.274Z,103079.13
